Alejo Ledesma, Argentina
Current Conditions -  °F | °C
As of 7:00 PM on Thursday 20 Nov 2014 (Local Time) from SAOC Reporting Station
Thunderstorm Thunderstorm  
Wind Chill: 57°   Ceiling: 4000
Heat Index: 57°   Visibility: 6mi
Dew Point: 54°   Wind: 8mph
Humidity: 88%   Direction: 50°NE
Pressure: 29.94"   Gusts: NA
Location:  33.62°S, 62.62°W
Report Text: SAOC 202200Z 05007KT 9999 TS FEW020FEW040CB BKN040 14/12 Q1014
Loading
Personal Weather Stations






























Interactive Weather Map New forecast layout! Learn more

10-Day Weather Forecast

Advertisements
Track Severe Weather on mobile